Time;durP1;ratioP1;P1;durP2;ratioP2;P2;SDS_P1;SDS_P2;PMS_P1;PMS_P2;Temp;Humidity;BMP_temperature;BMP_pressure;BME280_temperature;BME280_humidity;BME280_pressure;Samples;Min_cycle;Max_cycle;Signal;HPM_P1;HPM_P2
2023/06/21 00:01:39;;;;;;;15.10;10.77;;;20.00;99.90;;;;;;5001999;28;20635;-58
2023/06/21 00:04:05;;;;;;;11.63;10.43;;;20.00;99.90;;;;;;5018803;28;20029;-57
2023/06/21 00:06:34;;;;;;;14.77;11.65;;;19.90;99.90;;;;;;5018736;28;20045;-57
2023/06/21 00:09:03;;;;;;;14.88;11.70;;;20.00;99.90;;;;;;5017993;28;20077;-57
2023/06/21 00:11:32;;;;;;;12.52;11.23;;;19.90;99.90;;;;;;5002122;28;20041;-57
2023/06/21 00:13:58;;;;;;;14.13;11.70;;;19.90;99.90;;;;;;5000979;28;20038;-62
2023/06/21 00:16:24;;;;;;;13.70;11.73;;;19.90;99.90;;;;;;5016706;28;20033;-61
2023/06/21 00:18:50;;;;;;;12.45;10.73;;;19.90;99.90;;;;;;5017303;28;20058;-64
2023/06/21 00:21:16;;;;;;;14.93;12.15;;;19.90;99.90;;;;;;4997273;28;20484;-63
2023/06/21 00:23:45;;;;;;;16.13;12.23;;;19.90;99.90;;;;;;5001763;28;20045;-61
2023/06/21 00:26:10;;;;;;;14.35;11.98;;;19.90;99.90;;;;;;5000772;28;20053;-63
2023/06/21 00:28:36;;;;;;;15.55;12.77;;;19.90;99.90;;;;;;5016538;28;20544;-64
2023/06/21 00:31:03;;;;;;;16.83;13.00;;;19.90;99.90;;;;;;5014736;28;20124;-63
2023/06/21 00:33:29;;;;;;;16.30;11.88;;;19.90;99.90;;;;;;5012814;28;20434;-61
2023/06/21 00:35:54;;;;;;;16.80;12.32;;;19.90;99.90;;;;;;5014087;28;20026;-64
2023/06/21 00:38:20;;;;;;;17.25;13.20;;;19.90;99.90;;;;;;4995945;28;20093;-62
2023/06/21 00:40:47;;;;;;;19.90;13.43;;;19.90;99.90;;;;;;4984306;28;20040;-63
2023/06/21 00:43:15;;;;;;;18.70;13.30;;;19.80;99.90;;;;;;5017593;28;20038;-64
2023/06/21 00:45:45;;;;;;;17.95;14.10;;;19.80;99.90;;;;;;5015949;28;21024;-64
2023/06/21 00:48:11;;;;;;;16.23;14.10;;;19.80;99.90;;;;;;5018549;28;20523;-63
2023/06/21 00:50:41;;;;;;;15.98;13.00;;;19.80;99.90;;;;;;5019128;28;20034;-63
2023/06/21 00:53:08;;;;;;;19.98;14.57;;;19.80;99.90;;;;;;4999964;28;22478;-62
2023/06/21 00:55:35;;;;;;;18.85;15.15;;;19.80;99.90;;;;;;5002268;28;20065;-63
2023/06/21 00:58:01;;;;;;;17.65;14.45;;;19.80;99.90;;;;;;5015999;28;20529;-64
2023/06/21 01:00:27;;;;;;;18.15;14.88;;;19.70;99.90;;;;;;5017302;28;20548;-62
2023/06/21 01:02:54;;;;;;;17.73;15.43;;;19.70;99.90;;;;;;5018258;28;20053;-64
2023/06/21 01:05:23;;;;;;;20.50;16.10;;;19.70;99.90;;;;;;5013371;28;20053;-64
2023/06/21 01:08:22;;;;;;;22.77;16.27;;;19.70;99.90;;;;;;5001505;28;20450;-62
2023/06/21 01:11:23;;;;;;;21.92;16.50;;;19.80;99.90;;;;;;5020026;28;20038;-63
2023/06/21 01:14:09;;;;;;;19.55;16.70;;;19.70;99.90;;;;;;4999867;28;20056;-62
2023/06/21 01:16:45;;;;;;;24.05;17.50;;;19.70;99.90;;;;;;5016125;28;20119;-61
2023/06/21 01:19:31;;;;;;;21.20;17.38;;;19.70;99.90;;;;;;5014737;28;20112;-64
2023/06/21 01:22:00;;;;;;;19.80;16.77;;;19.70;99.90;;;;;;5016119;28;20506;-63
2023/06/21 01:24:52;;;;;;;20.85;17.65;;;19.60;99.90;;;;;;5017510;28;20053;-63
2023/06/21 01:27:53;;;;;;;23.52;17.35;;;19.60;99.90;;;;;;4998200;28;20187;-64
2023/06/21 01:30:20;;;;;;;24.33;18.65;;;19.60;99.90;;;;;;4969291;28;20061;-64
2023/06/21 01:32:48;;;;;;;24.42;18.75;;;19.50;99.90;;;;;;5013194;28;20072;-64
2023/06/21 01:35:15;;;;;;;26.92;20.10;;;19.50;99.90;;;;;;5014786;28;20119;-60
2023/06/21 01:37:44;;;;;;;24.27;18.58;;;19.50;99.90;;;;;;5014863;28;20042;-63
2023/06/21 01:40:11;;;;;;;26.08;19.67;;;19.50;99.90;;;;;;4996993;28;20045;-63
2023/06/21 01:42:37;;;;;;;26.30;20.08;;;19.50;99.90;;;;;;5018338;28;20087;-63
2023/06/21 01:45:04;;;;;;;23.48;19.00;;;19.50;99.90;;;;;;5017151;28;20043;-63
2023/06/21 01:47:30;;;;;;;24.50;20.70;;;19.50;99.90;;;;;;5016704;28;20494;-61
2023/06/21 01:49:57;;;;;;;22.77;19.13;;;19.50;99.90;;;;;;5004309;28;20406;-63
2023/06/21 01:52:24;;;;;;;23.38;20.30;;;19.50;99.90;;;;;;5006278;28;20038;-63
2023/06/21 01:54:50;;;;;;;28.55;22.63;;;19.50;99.90;;;;;;5017713;28;20049;-63
2023/06/21 01:57:17;;;;;;;31.98;21.70;;;19.50;99.90;;;;;;4984382;28;20042;-63
2023/06/21 01:59:43;;;;;;;28.40;20.48;;;19.40;99.90;;;;;;5002415;28;20045;-63
2023/06/21 02:02:10;;;;;;;29.35;21.58;;;19.40;99.90;;;;;;5018074;28;20048;-63
2023/06/21 02:04:38;;;;;;;25.50;20.50;;;19.50;99.90;;;;;;5000281;28;20046;-63
2023/06/21 02:07:05;;;;;;;27.58;21.35;;;19.50;99.90;;;;;;5018709;28;20501;-64
2023/06/21 02:09:31;;;;;;;27.67;21.08;;;19.40;99.90;;;;;;5001893;28;20033;-63
2023/06/21 02:12:00;;;;;;;29.05;19.85;;;19.50;99.90;;;;;;5009798;28;20034;-63
2023/06/21 02:14:25;;;;;;;31.20;22.67;;;19.40;99.90;;;;;;5020405;28;20046;-60
2023/06/21 02:16:51;;;;;;;27.38;21.42;;;19.50;99.90;;;;;;5003693;28;20045;-63
2023/06/21 02:19:17;;;;;;;30.75;23.58;;;19.40;99.90;;;;;;5020472;28;20125;-63
2023/06/21 02:21:44;;;;;;;28.48;21.50;;;19.40;99.90;;;;;;5020354;28;20041;-63
2023/06/21 02:24:10;;;;;;;30.88;21.63;;;19.40;99.90;;;;;;5021395;28;20045;-63
2023/06/21 02:26:36;;;;;;;29.88;22.92;;;19.40;99.90;;;;;;5022938;28;20060;-62
2023/06/21 02:29:02;;;;;;;32.00;23.38;;;19.40;99.90;;;;;;5003421;28;20057;-63
2023/06/21 02:31:27;;;;;;;31.40;22.42;;;19.50;99.90;;;;;;5018159;28;20120;-62
2023/06/21 02:33:53;;;;;;;29.27;24.05;;;19.50;99.90;;;;;;5020351;28;20034;-63
2023/06/21 02:36:19;;;;;;;33.28;25.95;;;19.40;99.90;;;;;;5017288;28;20053;-62
2023/06/21 02:38:45;;;;;;;33.33;26.02;;;19.40;99.90;;;;;;4987840;28;20052;-64
2023/06/21 02:41:11;;;;;;;34.90;26.50;;;19.40;99.90;;;;;;5001546;28;20049;-63
2023/06/21 02:43:36;;;;;;;34.60;26.02;;;19.40;99.90;;;;;;5016535;28;20040;-63
2023/06/21 02:46:02;;;;;;;37.30;28.60;;;19.40;99.90;;;;;;5003672;28;20654;-63
2023/06/21 02:48:28;;;;;;;38.33;28.08;;;19.30;99.90;;;;;;5015259;28;20095;-63
2023/06/21 02:50:54;;;;;;;37.92;28.83;;;19.30;99.90;;;;;;5018326;28;20116;-62
2023/06/21 02:53:20;;;;;;;39.00;29.10;;;19.30;99.90;;;;;;4984740;28;20127;-62
2023/06/21 02:55:45;;;;;;;34.30;26.77;;;19.30;99.90;;;;;;5017002;28;20040;-63
2023/06/21 02:58:11;;;;;;;34.53;25.90;;;19.20;99.90;;;;;;5002385;28;20044;-63
2023/06/21 03:00:37;;;;;;;37.05;28.50;;;19.20;99.90;;;;;;5004166;28;20065;-63
2023/06/21 03:03:03;;;;;;;34.63;26.05;;;19.20;99.90;;;;;;4984615;28;20491;-63
2023/06/21 03:05:29;;;;;;;32.20;26.55;;;19.20;99.90;;;;;;5015313;28;20494;-63
2023/06/21 03:07:56;;;;;;;34.90;27.00;;;19.20;99.90;;;;;;5003221;28;20128;-64
2023/06/21 03:10:22;;;;;;;38.03;28.08;;;19.10;99.90;;;;;;5000512;28;20059;-64
2023/06/21 03:12:48;;;;;;;36.15;26.58;;;19.10;99.90;;;;;;5016733;28;20045;-63
2023/06/21 03:15:13;;;;;;;35.20;27.92;;;19.10;99.90;;;;;;5007357;28;20042;-63
2023/06/21 03:17:40;;;;;;;35.47;26.70;;;19.00;99.90;;;;;;5012914;28;20717;-62
2023/06/21 03:20:09;;;;;;;41.97;27.20;;;19.00;99.90;;;;;;5013967;28;20089;-63
2023/06/21 03:22:35;;;;;;;37.38;27.17;;;19.00;99.90;;;;;;4987867;28;20042;-63
2023/06/21 03:25:01;;;;;;;42.22;28.55;;;19.00;99.90;;;;;;4997402;28;20096;-64
2023/06/21 03:27:27;;;;;;;40.10;28.85;;;19.00;99.90;;;;;;5013510;28;20124;-61
2023/06/21 03:29:53;;;;;;;42.70;29.95;;;19.10;99.90;;;;;;4999651;28;20088;-64
2023/06/21 03:32:19;;;;;;;42.75;28.38;;;19.00;99.90;;;;;;5016130;28;20184;-63
2023/06/21 03:34:46;;;;;;;39.05;29.55;;;19.00;99.90;;;;;;5018195;28;20475;-63
2023/06/21 03:37:12;;;;;;;38.15;29.05;;;19.00;99.90;;;;;;5016758;28;20481;-63
2023/06/21 03:39:38;;;;;;;39.30;28.25;;;19.00;99.90;;;;;;4988795;28;20041;-63
2023/06/21 03:42:05;;;;;;;41.55;30.27;;;19.00;99.90;;;;;;5018771;28;20112;-63
2023/06/21 03:44:30;;;;;;;43.78;30.45;;;19.00;99.90;;;;;;5000320;28;20394;-63
2023/06/21 03:46:58;;;;;;;44.05;30.83;;;19.00;99.90;;;;;;5014553;28;20040;-63
2023/06/21 03:49:24;;;;;;;42.40;30.70;;;19.00;99.90;;;;;;5015565;28;20052;-64
2023/06/21 03:51:49;;;;;;;40.38;29.05;;;18.90;99.90;;;;;;5013146;28;20590;-63
2023/06/21 03:54:15;;;;;;;39.75;29.10;;;18.90;99.90;;;;;;5014196;28;20081;-64
2023/06/21 03:56:41;;;;;;;38.00;28.52;;;18.90;99.90;;;;;;5015445;28;20049;-63
2023/06/21 03:59:07;;;;;;;41.47;29.10;;;18.90;99.90;;;;;;5018166;28;20033;-64
2023/06/21 04:01:33;;;;;;;40.78;30.15;;;18.90;99.90;;;;;;5001683;28;20095;-64
2023/06/21 04:03:58;;;;;;;36.92;27.38;;;18.90;99.90;;;;;;5001636;28;20437;-63
2023/06/21 04:06:25;;;;;;;38.65;29.25;;;18.90;99.90;;;;;;5016532;28;20363;-63
2023/06/21 04:08:51;;;;;;;43.13;29.25;;;18.90;99.90;;;;;;5001135;28;20497;-64
2023/06/21 04:11:17;;;;;;;36.67;27.80;;;18.90;99.90;;;;;;4998317;28;20045;-63
2023/06/21 04:13:43;;;;;;;41.25;30.02;;;18.90;99.90;;;;;;4972013;28;20049;-64
2023/06/21 04:16:09;;;;;;;39.70;28.10;;;18.90;99.90;;;;;;5001090;28;20045;-63
2023/06/21 04:18:35;;;;;;;36.05;28.08;;;18.90;99.90;;;;;;5021098;28;20052;-60
2023/06/21 04:21:01;;;;;;;39.65;28.25;;;18.90;99.90;;;;;;5021841;28;20156;-63
2023/06/21 04:23:27;;;;;;;41.97;30.02;;;19.00;99.90;;;;;;5022607;28;20512;-65
2023/06/21 04:25:53;;;;;;;45.20;30.02;;;19.00;99.90;;;;;;5002599;28;20056;-64
2023/06/21 04:28:25;;;;;;;42.33;28.77;;;19.00;99.90;;;;;;5003184;28;20055;-64
2023/06/21 04:30:58;;;;;;;41.05;29.67;;;19.00;99.90;;;;;;5018408;28;20052;-64
2023/06/21 04:33:24;;;;;;;44.75;29.35;;;19.00;99.90;;;;;;5021141;28;20050;-64
2023/06/21 04:35:50;;;;;;;36.95;27.05;;;19.00;99.90;;;;;;5022159;28;20041;-64
2023/06/21 04:38:16;;;;;;;42.83;28.63;;;19.00;99.90;;;;;;5020235;28;20048;-63
2023/06/21 04:40:42;;;;;;;39.17;28.05;;;19.00;99.90;;;;;;5000826;28;20052;-61
2023/06/21 04:43:07;;;;;;;41.75;26.70;;;19.00;99.90;;;;;;5014909;28;20056;-64
2023/06/21 04:45:33;;;;;;;42.45;28.48;;;19.00;99.90;;;;;;4998362;28;20397;-64
2023/06/21 04:47:59;;;;;;;40.83;28.27;;;19.00;99.90;;;;;;4999335;28;20514;-64
2023/06/21 04:50:25;;;;;;;38.85;27.27;;;19.00;99.90;;;;;;5016175;28;20037;-64
2023/06/21 04:52:57;;;;;;;38.00;26.75;;;19.10;99.90;;;;;;4996139;28;20048;-64
2023/06/21 04:55:24;;;;;;;38.20;26.15;;;19.10;99.90;;;;;;4999813;28;20045;-65
2023/06/21 04:57:50;;;;;;;36.58;25.33;;;19.10;99.90;;;;;;5014448;28;20111;-64
2023/06/21 05:00:17;;;;;;;39.20;26.60;;;19.10;99.90;;;;;;4982800;28;20513;-63
2023/06/21 05:02:42;;;;;;;36.25;24.90;;;19.10;99.90;;;;;;5016161;28;20068;-64
2023/06/21 05:05:09;;;;;;;39.10;26.08;;;19.10;99.90;;;;;;5019192;28;20042;-63
2023/06/21 05:07:37;;;;;;;35.30;23.75;;;19.10;99.90;;;;;;5016062;28;20037;-64
2023/06/21 05:10:08;;;;;;;33.13;22.60;;;19.10;99.90;;;;;;5016770;28;20083;-64
2023/06/21 05:12:34;;;;;;;36.35;22.70;;;19.10;99.90;;;;;;5014832;28;20107;-64
2023/06/21 05:15:00;;;;;;;34.63;22.23;;;19.10;99.90;;;;;;5019659;28;20560;-64
2023/06/21 05:17:26;;;;;;;35.88;22.88;;;19.10;99.90;;;;;;5015085;28;20050;-64
2023/06/21 05:19:51;;;;;;;37.67;21.38;;;19.20;99.90;;;;;;4998037;28;20719;-64
2023/06/21 05:22:17;;;;;;;29.65;19.98;;;19.10;99.90;;;;;;5010854;28;20057;-61
2023/06/21 05:24:43;;;;;;;35.47;21.30;;;19.10;99.90;;;;;;5013831;28;20052;-65
2023/06/21 05:27:09;;;;;;;29.40;19.77;;;19.10;99.90;;;;;;5007080;28;20081;-61
2023/06/21 05:29:35;;;;;;;30.67;19.95;;;19.20;99.90;;;;;;4975979;28;20089;-64
2023/06/21 05:32:01;;;;;;;31.63;19.60;;;19.20;99.90;;;;;;5003880;28;20042;-63
2023/06/21 05:34:28;;;;;;;30.70;19.67;;;19.20;99.90;;;;;;5004112;28;20572;-64
2023/06/21 05:36:54;;;;;;;31.48;17.90;;;19.20;99.90;;;;;;4969746;28;20124;-64
2023/06/21 05:39:20;;;;;;;28.20;17.55;;;19.30;99.90;;;;;;5006280;28;20063;-62
2023/06/21 05:41:46;;;;;;;25.95;17.02;;;19.30;99.90;;;;;;4991628;28;20038;-64
2023/06/21 05:44:13;;;;;;;25.08;16.10;;;19.30;99.90;;;;;;4998513;28;20121;-64
2023/06/21 05:46:38;;;;;;;25.52;15.98;;;19.30;99.90;;;;;;5012807;28;20033;-64
2023/06/21 05:49:04;;;;;;;26.33;15.82;;;19.30;99.90;;;;;;5010047;28;20052;-65
2023/06/21 05:51:30;;;;;;;25.10;15.68;;;19.30;99.90;;;;;;5010837;28;20064;-64
2023/06/21 05:53:56;;;;;;;27.45;16.10;;;19.40;99.90;;;;;;4998329;28;20068;-63
2023/06/21 05:56:26;;;;;;;23.33;15.18;;;19.40;99.90;;;;;;5008601;28;20179;-64
2023/06/21 05:58:53;;;;;;;20.63;15.45;;;19.50;99.90;;;;;;5013598;28;20073;-65
2023/06/21 06:01:19;;;;;;;30.35;16.45;;;19.50;99.90;;;;;;5012126;28;20045;-64
2023/06/21 06:03:44;;;;;;;19.70;13.55;;;19.50;99.90;;;;;;5010436;28;20106;-64
2023/06/21 06:06:13;;;;;;;21.60;14.00;;;19.50;99.90;;;;;;4998012;28;20048;-64
2023/06/21 06:08:39;;;;;;;20.70;14.43;;;19.60;99.90;;;;;;5011495;28;20501;-64
2023/06/21 06:11:05;;;;;;;21.88;14.15;;;19.60;99.90;;;;;;4989074;28;20111;-62
2023/06/21 06:13:31;;;;;;;24.63;15.23;;;19.70;99.90;;;;;;5010854;28;20042;-60
2023/06/21 06:15:56;;;;;;;25.20;14.00;;;19.70;99.90;;;;;;5006641;28;20049;-61
2023/06/21 06:18:22;;;;;;;20.35;14.30;;;19.70;99.90;;;;;;4997431;28;20050;-62
2023/06/21 06:20:48;;;;;;;24.67;14.70;;;19.70;99.90;;;;;;5010367;28;20043;-62
2023/06/21 06:23:13;;;;;;;25.02;16.13;;;19.80;99.90;;;;;;5018606;28;20389;-63
2023/06/21 06:25:40;;;;;;;23.45;15.82;;;19.80;99.90;;;;;;4975719;28;1145843;-62
2023/06/21 06:28:06;;;;;;;25.55;15.18;;;19.90;99.90;;;;;;5013105;28;20048;-63
2023/06/21 06:30:32;;;;;;;24.65;15.80;;;19.90;99.90;;;;;;5022008;28;20093;-63
2023/06/21 06:32:58;;;;;;;22.05;16.20;;;20.00;99.90;;;;;;4989631;28;20126;-62
2023/06/21 06:35:24;;;;;;;23.52;16.58;;;20.00;99.90;;;;;;5008684;28;20176;-60
2023/06/21 06:37:50;;;;;;;22.38;16.25;;;20.10;99.90;;;;;;5006362;28;20042;-62
2023/06/21 06:40:16;;;;;;;19.80;15.10;;;20.20;99.90;;;;;;4966831;28;20052;-63
2023/06/21 06:42:41;;;;;;;23.63;15.40;;;20.20;99.90;;;;;;5006621;28;20075;-63
2023/06/21 06:45:08;;;;;;;19.90;15.38;;;20.30;99.90;;;;;;5005383;28;20053;-62
2023/06/21 06:47:34;;;;;;;22.95;15.65;;;20.30;99.90;;;;;;5006333;28;20048;-63
2023/06/21 06:50:02;;;;;;;24.67;15.32;;;20.40;99.90;;;;;;5005268;28;20049;-61
2023/06/21 06:52:29;;;;;;;25.48;15.82;;;20.50;99.90;;;;;;4992570;28;20179;-63
2023/06/21 06:54:54;;;;;;;21.95;15.13;;;20.50;99.90;;;;;;5006257;28;20037;-63
2023/06/21 06:57:22;;;;;;;22.63;15.75;;;20.60;99.90;;;;;;5007401;28;20069;-62
2023/06/21 06:59:48;;;;;;;21.75;15.35;;;20.70;99.90;;;;;;4975964;28;20169;-63
2023/06/21 07:02:14;;;;;;;20.95;14.57;;;20.70;99.90;;;;;;5005579;28;20397;-61
2023/06/21 07:04:40;;;;;;;24.10;15.02;;;20.80;99.90;;;;;;4992397;28;20072;-63
2023/06/21 07:07:06;;;;;;;21.58;13.48;;;20.80;99.90;;;;;;4992503;28;20045;-60
2023/06/21 07:09:33;;;;;;;21.10;14.38;;;21.00;99.90;;;;;;5006769;28;21242;-62
2023/06/21 07:12:01;;;;;;;19.88;13.45;;;21.10;99.90;;;;;;4993395;28;20029;-63
2023/06/21 07:14:27;;;;;;;20.02;13.07;;;21.20;99.90;;;;;;5005698;28;20042;-63
2023/06/21 07:16:53;;;;;;;15.57;12.10;;;21.30;99.90;;;;;;5007502;28;20672;-62
2023/06/21 07:19:19;;;;;;;17.25;11.45;;;21.40;99.90;;;;;;5004343;28;20046;-61
2023/06/21 07:21:45;;;;;;;16.13;11.10;;;21.50;99.90;;;;;;4993835;28;20037;-63
2023/06/21 07:24:11;;;;;;;17.27;10.70;;;21.50;99.90;;;;;;5007890;28;20112;-61
2023/06/21 07:26:38;;;;;;;15.63;9.60;;;21.50;99.90;;;;;;5009859;28;20050;-63
2023/06/21 07:29:04;;;;;;;14.05;9.85;;;21.60;99.90;;;;;;5007516;28;20045;-61
2023/06/21 07:31:32;;;;;;;14.73;9.43;;;21.60;99.90;;;;;;5009158;28;20057;-62
2023/06/21 07:33:58;;;;;;;18.45;9.70;;;21.60;99.90;;;;;;5006246;28;20057;-63
2023/06/21 07:36:27;;;;;;;12.48;8.40;;;21.70;99.90;;;;;;5008946;28;20053;-63
2023/06/21 07:38:53;;;;;;;11.15;9.30;;;21.70;99.90;;;;;;5009575;28;20049;-63
2023/06/21 07:41:19;;;;;;;11.95;9.45;;;21.80;99.90;;;;;;4999042;28;20148;-63
2023/06/21 07:43:45;;;;;;;10.68;8.50;;;21.90;99.90;;;;;;5009370;28;20034;-63
2023/06/21 07:46:10;;;;;;;9.93;7.72;;;21.90;99.90;;;;;;5007874;28;20041;-62
2023/06/21 07:48:38;;;;;;;14.00;8.73;;;21.90;99.90;;;;;;4995534;28;20504;-63
2023/06/21 07:51:04;;;;;;;13.13;8.35;;;22.00;99.90;;;;;;5010228;28;20564;-63
2023/06/21 07:53:31;;;;;;;10.80;8.18;;;22.10;99.90;;;;;;5008618;28;20037;-63
2023/06/21 07:55:56;;;;;;;13.32;8.73;;;22.20;99.90;;;;;;5008433;28;20549;-62
2023/06/21 07:58:22;;;;;;;13.02;8.35;;;22.30;99.90;;;;;;5005892;28;20030;-63
2023/06/21 08:00:48;;;;;;;11.68;8.02;;;22.40;99.90;;;;;;5007275;28;20038;-64
2023/06/21 08:03:14;;;;;;;12.55;8.40;;;22.50;99.90;;;;;;4987819;28;20045;-63
2023/06/21 08:05:40;;;;;;;12.65;9.23;;;22.60;99.90;;;;;;5007258;28;20128;-63
2023/06/21 08:08:06;;;;;;;12.23;8.57;;;22.70;99.90;;;;;;4993736;28;20113;-63
2023/06/21 08:10:32;;;;;;;10.82;8.05;;;22.70;99.90;;;;;;5005086;28;20045;-63
2023/06/21 08:12:58;;;;;;;9.25;7.80;;;22.80;99.90;;;;;;5007070;28;20055;-63
2023/06/21 08:15:24;;;;;;;14.73;7.68;;;22.90;99.90;;;;;;5007068;28;20042;-60
2023/06/21 08:17:49;;;;;;;8.80;7.90;;;23.00;99.90;;;;;;5005122;28;20601;-63
2023/06/21 08:20:16;;;;;;;11.60;8.48;;;23.10;99.90;;;;;;5003222;28;20061;-62
2023/06/21 08:22:42;;;;;;;12.20;8.90;;;23.20;99.90;;;;;;5006832;28;20409;-62
2023/06/21 08:25:08;;;;;;;11.70;7.57;;;23.20;99.90;;;;;;5008359;28;20045;-61
2023/06/21 08:27:33;;;;;;;12.50;7.72;;;23.30;99.90;;;;;;4989788;28;20054;-64
2023/06/21 08:29:59;;;;;;;12.10;8.57;;;23.30;99.90;;;;;;5008843;28;20442;-63
2023/06/21 08:32:25;;;;;;;13.82;8.15;;;23.30;99.90;;;;;;5004755;28;21258;-63
2023/06/21 08:34:54;;;;;;;10.45;8.35;;;23.30;99.90;;;;;;5005653;28;20061;-63
2023/06/21 08:37:25;;;;;;;8.95;7.85;;;23.40;99.90;;;;;;5005077;28;20049;-63
2023/06/21 08:39:52;;;;;;;10.15;7.53;;;23.50;99.90;;;;;;5002818;28;20065;-61
2023/06/21 08:42:23;;;;;;;11.85;7.40;;;23.50;99.90;;;;;;5005392;28;20046;-63
2023/06/21 08:44:50;;;;;;;11.77;7.75;;;23.60;99.90;;;;;;5007956;28;20052;-63
2023/06/21 08:47:17;;;;;;;10.25;7.20;;;23.70;99.90;;;;;;5007535;28;20042;-64
2023/06/21 08:49:46;;;;;;;10.00;6.80;;;23.80;99.90;;;;;;5004356;28;20513;-63
2023/06/21 08:52:21;;;;;;;8.98;7.00;;;23.90;99.90;;;;;;4998004;28;20111;-62
2023/06/21 08:54:57;;;;;;;11.15;6.18;;;24.00;99.90;;;;;;5005251;28;20049;-61
2023/06/21 08:57:24;;;;;;;9.00;5.72;;;24.10;99.90;;;;;;5008080;28;20045;-63
2023/06/21 08:59:56;;;;;;;12.80;6.80;;;24.10;99.90;;;;;;4999631;28;20070;-61
2023/06/21 09:02:56;;;;;;;8.23;6.30;;;24.20;99.90;;;;;;4992047;28;20045;-62
2023/06/21 09:05:48;;;;;;;11.82;6.57;;;24.30;99.90;;;;;;5008679;28;20089;-63
2023/06/21 09:08:15;;;;;;;10.60;6.60;;;24.40;99.90;;;;;;5008712;28;20183;-62
2023/06/21 09:10:43;;;;;;;6.93;5.68;;;24.40;99.90;;;;;;5009677;28;20048;-63
2023/06/21 09:13:10;;;;;;;8.18;5.63;;;24.40;99.90;;;;;;4996170;28;20053;-63
2023/06/21 09:15:37;;;;;;;9.07;6.15;;;24.50;99.90;;;;;;5011832;28;20041;-63
2023/06/21 09:18:03;;;;;;;10.23;6.28;;;24.70;99.90;;;;;;4994070;28;21954;-64
2023/06/21 09:20:30;;;;;;;9.63;5.20;;;24.80;99.90;;;;;;5009848;28;20056;-63
2023/06/21 09:22:57;;;;;;;8.07;5.70;;;25.00;99.90;;;;;;5007998;28;20050;-62
2023/06/21 09:25:23;;;;;;;6.05;4.80;;;25.20;99.90;;;;;;5009016;28;20393;-63
2023/06/21 09:27:49;;;;;;;6.35;4.97;;;25.20;99.70;;;;;;5008953;28;20417;-63
2023/06/21 09:30:15;;;;;;;10.10;6.00;;;25.30;99.60;;;;;;5012254;28;20045;-63
2023/06/21 09:32:41;;;;;;;8.52;5.53;;;25.50;99.30;;;;;;4980626;28;20041;-60
2023/06/21 09:35:08;;;;;;;10.57;5.28;;;25.60;99.00;;;;;;5009977;28;20060;-64
2023/06/21 09:37:36;;;;;;;8.18;5.38;;;25.50;98.70;;;;;;5008867;28;20402;-61
2023/06/21 09:40:03;;;;;;;6.20;4.78;;;25.60;98.40;;;;;;5009974;28;20952;-63
2023/06/21 09:42:29;;;;;;;7.10;4.43;;;25.70;98.00;;;;;;5016029;28;20072;-63
2023/06/21 09:44:55;;;;;;;8.45;5.30;;;25.80;97.50;;;;;;5012513;28;20120;-63
2023/06/21 09:47:21;;;;;;;8.23;4.85;;;25.80;97.00;;;;;;5007334;28;20052;-63
2023/06/21 09:49:48;;;;;;;5.70;4.80;;;25.90;97.30;;;;;;5010436;28;20050;-63
2023/06/21 09:52:15;;;;;;;9.63;4.78;;;26.00;97.30;;;;;;4991595;28;20052;-63
2023/06/21 09:54:41;;;;;;;8.63;5.22;;;26.10;97.00;;;;;;5013376;28;20490;-63
2023/06/21 09:57:07;;;;;;;5.85;4.65;;;26.00;96.20;;;;;;5010901;28;20068;-62
2023/06/21 09:59:40;;;;;;;7.05;5.18;;;26.00;96.00;;;;;;4996592;28;20052;-64
2023/06/21 10:02:10;;;;;;;7.55;4.88;;;26.00;95.90;;;;;;5001863;28;20901;-63
2023/06/21 10:04:44;;;;;;;10.00;5.47;;;26.00;95.90;;;;;;5013468;28;20050;-61
2023/06/21 10:07:14;;;;;;;9.57;6.45;;;26.20;96.40;;;;;;5008680;28;20060;-63
2023/06/21 10:09:40;;;;;;;6.90;5.43;;;26.30;95.90;;;;;;4986950;28;20041;-63
2023/06/21 10:12:08;;;;;;;7.30;5.35;;;26.20;95.70;;;;;;5006178;28;20033;-63
2023/06/21 10:14:34;;;;;;;6.28;4.32;;;26.20;95.30;;;;;;5007412;28;20080;-63
2023/06/21 10:17:01;;;;;;;6.28;5.10;;;26.20;94.90;;;;;;5007022;28;20120;-63
2023/06/21 10:19:31;;;;;;;8.10;5.30;;;26.30;94.40;;;;;;5008979;28;20046;-63
2023/06/21 10:22:09;;;;;;;8.02;5.30;;;26.30;93.80;;;;;;5009726;28;20544;-63
2023/06/21 10:24:49;;;;;;;6.97;5.55;;;26.20;93.40;;;;;;5011110;28;20086;-63
2023/06/21 10:27:17;;;;;;;7.40;4.90;;;26.10;93.80;;;;;;5006899;28;20111;-63
2023/06/21 10:29:44;;;;;;;7.13;4.60;;;26.30;94.30;;;;;;5007658;28;20073;-61
2023/06/21 10:32:11;;;;;;;6.78;4.32;;;26.60;94.00;;;;;;5004142;28;20547;-61
2023/06/21 10:35:15;;;;;;;5.25;4.22;;;26.70;93.30;;;;;;4991355;28;20185;-63
2023/06/21 10:37:48;;;;;;;6.53;4.72;;;26.90;92.50;;;;;;4990147;28;20046;-63
2023/06/21 10:40:15;;;;;;;7.43;5.22;;;27.00;92.30;;;;;;5008933;28;20049;-63
2023/06/21 10:42:45;;;;;;;5.65;4.10;;;27.20;92.00;;;;;;5009878;28;20053;-63
2023/06/21 10:45:11;;;;;;;6.22;4.03;;;27.20;91.90;;;;;;5007556;28;20037;-63
2023/06/21 10:47:38;;;;;;;16.45;5.55;;;27.10;91.50;;;;;;5006279;28;20382;-62
2023/06/21 10:50:06;;;;;;;7.85;5.05;;;27.00;91.30;;;;;;5004827;28;20403;-63
2023/06/21 10:52:33;;;;;;;6.82;3.70;;;27.20;91.20;;;;;;5007935;28;20053;-62
2023/06/21 10:55:01;;;;;;;8.07;3.63;;;27.30;91.10;;;;;;5009956;28;20402;-63
2023/06/21 10:57:31;;;;;;;5.15;3.97;;;27.50;90.60;;;;;;5007959;28;20041;-63
2023/06/21 11:00:02;;;;;;;6.07;3.78;;;27.40;89.50;;;;;;4986764;28;20423;-63
2023/06/21 11:02:29;;;;;;;8.40;4.25;;;27.30;89.40;;;;;;5009265;28;20046;-61
2023/06/21 11:05:16;;;;;;;8.15;4.55;;;27.50;89.60;;;;;;5009476;28;20132;-69
2023/06/21 11:07:55;;;;;;;5.45;3.67;;;27.70;89.60;;;;;;4982641;28;20146;-70
2023/06/21 11:10:35;;;;;;;5.20;3.50;;;28.00;87.00;;;;;;4964371;28;20138;-69
2023/06/21 11:13:01;;;;;;;5.68;3.40;;;28.20;85.30;;;;;;4990184;28;20805;-70
2023/06/21 11:15:28;;;;;;;6.15;3.55;;;28.40;84.70;;;;;;4978957;28;20084;-70
2023/06/21 11:17:55;;;;;;;5.97;3.35;;;28.60;84.00;;;;;;4976583;28;20077;-70
2023/06/21 11:20:23;;;;;;;5.57;2.95;;;28.90;82.70;;;;;;4982723;28;20049;-69
2023/06/21 11:23:00;;;;;;;4.22;3.42;;;28.90;81.20;;;;;;4994874;28;20056;-70
2023/06/21 11:25:27;;;;;;;5.07;3.42;;;29.00;80.90;;;;;;4990238;28;20041;-70
2023/06/21 11:28:24;;;;;;;5.47;3.50;;;29.10;79.80;;;;;;4988004;28;20076;-70
2023/06/21 11:31:07;;;;;;;3.78;3.30;;;29.20;80.60;;;;;;4995554;28;20051;-69
2023/06/21 11:33:55;;;;;;;5.22;3.80;;;29.50;79.70;;;;;;4974576;28;20045;-67
2023/06/21 11:36:41;;;;;;;5.18;3.38;;;29.30;76.50;;;;;;4974442;28;20041;-70
2023/06/21 11:39:08;;;;;;;4.65;3.58;;;29.30;79.90;;;;;;4976998;28;20050;-70
2023/06/21 11:41:43;;;;;;;3.50;3.10;;;29.10;77.20;;;;;;4974821;28;20047;-69
2023/06/21 11:44:14;;;;;;;3.45;3.08;;;28.80;75.50;;;;;;4999470;28;20042;-68
2023/06/21 11:46:42;;;;;;;6.17;3.90;;;28.70;76.80;;;;;;4999422;28;20140;-69
2023/06/21 11:49:08;;;;;;;5.38;4.07;;;28.90;77.50;;;;;;5001409;28;20115;-70
2023/06/21 11:51:35;;;;;;;8.75;4.00;;;29.20;77.40;;;;;;5001680;28;20037;-70
2023/06/21 11:54:01;;;;;;;6.40;3.70;;;29.50;77.20;;;;;;5015713;28;20041;-71
2023/06/21 11:56:32;;;;;;;6.53;4.97;;;29.80;76.80;;;;;;5002609;28;20429;-70
2023/06/21 11:58:59;;;;;;;6.50;4.10;;;29.90;74.60;;;;;;5002793;28;20038;-68
2023/06/21 12:01:25;;;;;;;4.60;3.67;;;30.00;73.60;;;;;;4997179;28;20450;-70
2023/06/21 12:04:01;;;;;;;5.22;3.75;;;30.20;73.60;;;;;;4981203;28;20128;-70
2023/06/21 12:06:28;;;;;;;5.80;4.10;;;30.30;72.50;;;;;;4996701;28;20516;-70
2023/06/21 12:08:57;;;;;;;5.18;3.45;;;30.40;71.40;;;;;;4996443;28;20092;-71
2023/06/21 12:11:26;;;;;;;6.50;4.90;;;30.60;71.90;;;;;;4997255;28;20084;-68
2023/06/21 12:13:52;;;;;;;5.80;5.18;;;30.80;72.00;;;;;;4997954;28;20042;-70
2023/06/21 12:16:18;;;;;;;6.20;4.88;;;30.90;71.80;;;;;;4995176;28;20053;-69
2023/06/21 12:18:44;;;;;;;7.07;5.00;;;31.10;70.80;;;;;;4978245;28;20575;-70
2023/06/21 12:21:10;;;;;;;10.10;6.28;;;31.20;70.60;;;;;;4988806;28;20073;-67
2023/06/21 12:23:35;;;;;;;6.85;5.55;;;31.30;70.50;;;;;;4980491;28;20065;-70
2023/06/21 12:26:03;;;;;;;7.50;5.20;;;31.50;69.30;;;;;;4999143;28;20064;-68
2023/06/21 12:28:31;;;;;;;6.60;5.00;;;31.70;67.90;;;;;;4997946;28;20045;-72
2023/06/21 12:30:56;;;;;;;7.55;6.05;;;31.50;67.70;;;;;;4999937;28;20038;-72
2023/06/21 12:33:30;;;;;;;7.53;5.32;;;31.60;67.30;;;;;;4998783;28;20386;-72
2023/06/21 12:36:17;;;;;;;7.32;4.40;;;31.70;67.40;;;;;;5000968;28;20116;-72
2023/06/21 12:38:46;;;;;;;7.15;5.47;;;31.80;68.20;;;;;;5003551;28;20044;-71